Time;durP1;ratioP1;P1;durP2;ratioP2;P2;SDS_P1;SDS_P2;PMS_P1;PMS_P2;Temp;Humidity;BMP_temperature;BMP_pressure;BME280_temperature;BME280_humidity;BME280_pressure;Samples;Min_cycle;Max_cycle;Signal;HPM_P1;HPM_P2
2021/10/01 00:02:14;;;;;;;3.20;1.60;;;11.30;99.90;;;;;;5036822;28;20590;-71
2021/10/01 00:04:40;;;;;;;3.50;1.90;;;11.30;99.90;;;;;;5036144;28;20797;-71
2021/10/01 00:07:06;;;;;;;3.67;1.77;;;11.30;99.90;;;;;;5036052;28;20388;-71
2021/10/01 00:09:31;;;;;;;3.80;1.70;;;11.30;99.90;;;;;;5035988;28;20392;-71
2021/10/01 00:11:57;;;;;;;2.60;1.50;;;11.30;99.90;;;;;;5035646;28;20180;-71
2021/10/01 00:14:25;;;;;;;2.87;1.30;;;11.30;99.90;;;;;;5035950;28;20176;-71
2021/10/01 00:16:52;;;;;;;2.83;1.57;;;11.30;99.90;;;;;;5036993;28;20192;-72
2021/10/01 00:19:19;;;;;;;5.37;1.93;;;11.30;99.90;;;;;;5042907;28;20808;-72
2021/10/01 00:21:45;;;;;;;4.60;2.43;;;11.30;99.90;;;;;;5047595;28;20458;-72
2021/10/01 00:24:11;;;;;;;4.63;1.83;;;11.30;99.90;;;;;;5035534;28;20430;-72
2021/10/01 00:26:38;;;;;;;3.00;1.50;;;11.20;99.90;;;;;;5035476;28;20169;-71
2021/10/01 00:29:04;;;;;;;3.10;1.80;;;11.20;99.90;;;;;;5035969;28;20172;-71
2021/10/01 00:31:30;;;;;;;5.27;2.07;;;11.20;99.90;;;;;;5035876;28;20470;-72
2021/10/01 00:33:57;;;;;;;5.60;1.73;;;11.20;99.90;;;;;;5035585;28;20434;-71
2021/10/01 00:36:22;;;;;;;3.70;1.53;;;11.20;99.90;;;;;;5035933;28;20423;-71
2021/10/01 00:38:48;;;;;;;4.53;1.77;;;11.20;99.90;;;;;;5035405;28;20430;-72
2021/10/01 00:41:13;;;;;;;3.57;1.53;;;11.20;99.90;;;;;;5035299;28;20165;-72
2021/10/01 00:43:39;;;;;;;4.67;1.50;;;11.20;99.90;;;;;;5035539;28;20716;-71
2021/10/01 00:46:05;;;;;;;4.10;1.43;;;11.20;99.90;;;;;;5046058;28;20207;-72
2021/10/01 00:48:31;;;;;;;3.00;1.20;;;11.10;99.90;;;;;;5055235;28;20191;-72
2021/10/01 00:50:57;;;;;;;5.43;1.70;;;11.10;99.90;;;;;;5055223;28;20411;-72
2021/10/01 00:53:23;;;;;;;3.10;1.40;;;11.10;99.90;;;;;;5047174;28;20227;-71
2021/10/01 00:55:48;;;;;;;3.47;1.30;;;11.10;99.90;;;;;;5034678;28;20431;-71
2021/10/01 00:58:14;;;;;;;3.00;1.43;;;11.10;99.90;;;;;;5035508;28;20188;-71
2021/10/01 01:01:00;;;;;;;2.57;1.23;;;11.10;99.90;;;;;;5035289;28;20179;-71
2021/10/01 01:03:25;;;;;;;2.57;1.60;;;11.10;99.90;;;;;;5033901;28;20195;-71
2021/10/01 01:06:19;;;;;;;4.60;1.57;;;11.10;99.90;;;;;;5034954;28;20472;-71
2021/10/01 01:14:35;;;;;;;3.80;1.63;;;11.00;99.90;;;;;;5090277;27;20627;-72
2021/10/01 01:17:05;;;;;;;5.00;2.03;;;11.00;99.90;;;;;;5089469;28;20416;-72
2021/10/01 01:20:03;;;;;;;2.20;1.40;;;11.00;99.90;;;;;;5090224;28;20392;-72
2021/10/01 01:22:38;;;;;;;1.73;1.33;;;11.00;99.90;;;;;;5089258;28;20390;-72
2021/10/01 01:25:44;;;;;;;8.93;1.73;;;11.00;99.90;;;;;;5089824;28;20446;-72
2021/10/01 01:28:13;;;;;;;5.10;1.77;;;11.00;99.90;;;;;;5077471;28;20413;-72
2021/10/01 01:30:44;;;;;;;3.30;1.47;;;11.00;99.90;;;;;;5090047;28;20385;-72
2021/10/01 01:33:15;;;;;;;5.13;1.57;;;11.00;99.90;;;;;;5089777;28;21026;-72
2021/10/01 01:35:42;;;;;;;3.63;1.70;;;11.00;99.90;;;;;;5089750;28;20424;-72
2021/10/01 01:38:13;;;;;;;2.97;1.77;;;11.00;99.90;;;;;;5089731;28;20393;-72
2021/10/01 01:40:42;;;;;;;3.27;1.13;;;11.00;99.90;;;;;;5089984;28;20447;-72
2021/10/01 01:43:09;;;;;;;6.93;1.60;;;11.00;99.90;;;;;;5089697;28;20397;-72
2021/10/01 01:45:37;;;;;;;5.30;2.00;;;11.00;99.90;;;;;;5081715;28;20802;-72
2021/10/01 01:48:05;;;;;;;3.50;1.53;;;11.00;99.90;;;;;;5069521;28;20500;-72
2021/10/01 01:50:31;;;;;;;4.13;1.47;;;11.00;99.90;;;;;;5069362;28;20433;-72
2021/10/01 01:52:58;;;;;;;3.93;1.20;;;11.00;99.90;;;;;;5069166;28;20496;-72
2021/10/01 01:55:24;;;;;;;3.50;1.87;;;11.00;99.90;;;;;;5069589;28;20886;-72
2021/10/01 01:57:51;;;;;;;3.40;1.73;;;11.00;99.90;;;;;;5069240;28;20390;-72
2021/10/01 02:00:17;;;;;;;1.90;1.10;;;11.00;99.90;;;;;;5069229;28;20156;-72
2021/10/01 02:02:43;;;;;;;1.53;1.40;;;11.00;99.90;;;;;;5087879;28;20423;-72
2021/10/01 02:05:10;;;;;;;3.40;1.27;;;11.00;99.90;;;;;;5089332;28;20498;-72
2021/10/01 02:07:36;;;;;;;7.80;2.53;;;11.00;99.90;;;;;;5084612;28;20418;-72
2021/10/01 02:10:04;;;;;;;2.20;1.33;;;11.00;99.90;;;;;;5068836;28;20404;-72
2021/10/01 02:12:31;;;;;;;2.60;1.60;;;11.00;99.90;;;;;;5068863;28;20461;-73
2021/10/01 02:14:59;;;;;;;2.73;1.80;;;10.90;99.90;;;;;;5069036;28;20395;-74
2021/10/01 02:17:27;;;;;;;2.57;1.20;;;10.90;99.90;;;;;;5068888;28;20412;-74
2021/10/01 02:19:54;;;;;;;4.07;1.67;;;11.00;99.90;;;;;;5068962;28;20405;-74
2021/10/01 02:22:21;;;;;;;2.90;1.47;;;10.90;99.90;;;;;;5068979;28;20752;-74
2021/10/01 02:24:47;;;;;;;3.17;1.50;;;10.90;99.90;;;;;;5060738;28;20444;-74
2021/10/01 02:27:37;;;;;;;5.00;1.30;;;10.90;99.90;;;;;;5055403;28;20425;-74
2021/10/01 02:30:10;;;;;;;2.17;1.10;;;10.90;99.90;;;;;;5067883;28;20842;-74
2021/10/01 02:32:40;;;;;;;2.77;1.37;;;10.90;99.90;;;;;;5075249;28;20625;-74
2021/10/01 02:35:07;;;;;;;2.07;1.50;;;10.90;99.90;;;;;;5069458;28;20413;-74
2021/10/01 02:37:33;;;;;;;5.33;1.70;;;10.90;99.90;;;;;;5055554;28;20464;-74
2021/10/01 02:40:00;;;;;;;3.23;1.40;;;10.90;99.90;;;;;;5055380;28;20492;-74
2021/10/01 02:42:28;;;;;;;6.23;1.77;;;10.90;99.90;;;;;;5055109;28;20777;-74
2021/10/01 02:44:53;;;;;;;2.37;1.10;;;10.90;99.90;;;;;;5055739;28;20896;-74
2021/10/01 02:47:20;;;;;;;3.50;1.57;;;10.90;99.90;;;;;;5055078;28;20544;-74
2021/10/01 02:49:46;;;;;;;2.70;1.30;;;10.80;99.90;;;;;;5055166;28;20163;-74
2021/10/01 02:55:10;;;;;;;4.63;1.77;;;10.80;99.90;;;;;;5069805;28;20628;-70
2021/10/01 02:57:50;;;;;;;4.33;1.53;;;10.80;99.90;;;;;;5070094;28;20386;-70
2021/10/01 03:00:16;;;;;;;4.77;1.60;;;10.80;99.90;;;;;;5069536;28;20948;-70
2021/10/01 03:02:44;;;;;;;6.70;1.73;;;10.80;99.90;;;;;;5069781;28;20816;-70
2021/10/01 03:05:12;;;;;;;4.67;1.40;;;10.80;99.90;;;;;;5070075;28;20452;-70
2021/10/01 03:07:40;;;;;;;5.47;1.47;;;10.80;99.90;;;;;;5069728;28;20444;-70
2021/10/01 03:10:07;;;;;;;2.43;1.37;;;10.80;99.90;;;;;;5055846;28;20399;-70
2021/10/01 03:12:33;;;;;;;2.33;1.10;;;10.80;99.90;;;;;;5049646;28;20388;-70
2021/10/01 03:15:01;;;;;;;3.63;1.07;;;10.80;99.90;;;;;;5049741;28;20448;-70
2021/10/01 03:17:27;;;;;;;3.07;1.17;;;10.80;99.90;;;;;;5049663;28;20392;-70
2021/10/01 03:19:53;;;;;;;2.00;1.17;;;10.80;99.90;;;;;;5049714;28;20813;-70
2021/10/01 03:22:19;;;;;;;2.70;1.13;;;10.80;99.90;;;;;;5049406;28;20831;-71
2021/10/01 03:24:46;;;;;;;1.60;1.10;;;10.80;99.90;;;;;;5048819;28;20429;-70
2021/10/01 03:27:12;;;;;;;3.23;1.30;;;10.80;99.90;;;;;;5053840;28;20425;-70
2021/10/01 03:29:39;;;;;;;2.17;1.20;;;10.80;99.90;;;;;;5056844;28;20755;-70
2021/10/01 03:32:06;;;;;;;2.73;1.43;;;10.80;99.90;;;;;;5056419;28;20174;-70
2021/10/01 03:34:32;;;;;;;4.70;1.60;;;10.90;99.90;;;;;;5052002;28;20444;-70
2021/10/01 03:36:58;;;;;;;6.43;1.70;;;10.90;99.90;;;;;;5053519;28;20415;-70
2021/10/01 03:39:23;;;;;;;3.50;1.23;;;10.90;99.90;;;;;;5058940;28;20404;-70
2021/10/01 03:41:50;;;;;;;2.70;1.43;;;10.90;99.90;;;;;;5063752;28;20170;-70
2021/10/01 03:44:16;;;;;;;11.90;1.90;;;10.90;99.90;;;;;;5063870;28;20201;-70
2021/10/01 03:46:41;;;;;;;3.50;1.57;;;10.90;99.90;;;;;;5055747;28;20418;-70
2021/10/01 03:49:07;;;;;;;2.70;1.17;;;10.90;99.90;;;;;;5048792;28;20163;-70
2021/10/01 03:51:33;;;;;;;1.50;1.40;;;10.90;99.90;;;;;;5048828;28;20167;-70
2021/10/01 03:53:59;;;;;;;3.03;1.37;;;10.90;99.90;;;;;;5048657;28;20273;-70
2021/10/01 03:56:25;;;;;;;3.60;1.57;;;10.90;99.90;;;;;;5050142;28;20205;-70
2021/10/01 03:58:51;;;;;;;3.60;2.00;;;10.90;99.90;;;;;;5060207;28;20486;-70
2021/10/01 04:01:17;;;;;;;2.53;1.17;;;10.90;99.90;;;;;;5049141;28;20199;-70
2021/10/01 04:03:43;;;;;;;2.13;1.07;;;10.90;99.90;;;;;;5048685;28;20164;-70
2021/10/01 04:06:08;;;;;;;3.47;1.53;;;10.90;99.90;;;;;;5041451;28;20428;-70
2021/10/01 04:08:34;;;;;;;3.30;1.33;;;10.90;99.90;;;;;;5055438;28;20189;-70
2021/10/01 04:11:00;;;;;;;3.20;1.60;;;10.80;99.90;;;;;;5055467;28;20162;-70
2021/10/01 04:13:26;;;;;;;4.60;2.57;;;10.80;99.90;;;;;;5045385;28;20446;-70
2021/10/01 04:15:52;;;;;;;4.70;1.50;;;10.90;99.90;;;;;;5034933;28;20831;-70
2021/10/01 04:18:18;;;;;;;2.17;1.30;;;10.90;99.90;;;;;;5035276;28;20489;-70
2021/10/01 04:20:45;;;;;;;2.20;1.70;;;10.90;99.90;;;;;;5046475;28;20180;-70
2021/10/01 04:23:12;;;;;;;2.00;1.47;;;10.80;99.90;;;;;;5045311;28;20186;-70
2021/10/01 04:25:37;;;;;;;4.40;1.60;;;10.80;99.90;;;;;;5035068;28;20408;-70
2021/10/01 04:28:07;;;;;;;2.30;1.30;;;10.80;99.90;;;;;;5048723;28;21123;-70
2021/10/01 04:30:37;;;;;;;2.87;1.30;;;10.80;99.90;;;;;;5041673;28;20176;-70
2021/10/01 04:33:13;;;;;;;3.27;1.30;;;10.80;99.90;;;;;;5052329;28;20900;-70
2021/10/01 04:35:39;;;;;;;3.73;1.50;;;10.80;99.90;;;;;;5044027;28;20420;-70
2021/10/01 04:38:05;;;;;;;2.30;1.50;;;10.80;99.90;;;;;;5034344;28;20844;-70
2021/10/01 04:40:30;;;;;;;2.90;1.40;;;10.80;99.90;;;;;;5035303;28;20449;-70
2021/10/01 04:42:56;;;;;;;1.80;1.47;;;10.80;99.90;;;;;;5034565;28;20160;-70
2021/10/01 04:45:22;;;;;;;2.90;1.30;;;10.80;99.90;;;;;;5034617;28;20211;-70
2021/10/01 04:47:47;;;;;;;3.30;1.30;;;10.80;99.90;;;;;;5037706;28;20221;-70
2021/10/01 04:50:13;;;;;;;2.70;1.57;;;10.80;99.90;;;;;;5053976;28;20250;-70
2021/10/01 04:52:38;;;;;;;3.20;1.60;;;10.80;99.90;;;;;;5053191;28;20629;-70
2021/10/01 04:55:04;;;;;;;2.90;1.77;;;10.80;99.90;;;;;;5055588;28;20169;-70
2021/10/01 04:57:30;;;;;;;1.60;1.10;;;10.80;99.90;;;;;;5044157;28;20222;-70
2021/10/01 04:59:55;;;;;;;4.20;1.30;;;10.80;99.90;;;;;;5049443;28;20534;-70
2021/10/01 05:02:21;;;;;;;2.77;1.20;;;10.80;99.90;;;;;;5054275;28;20657;-70
2021/10/01 05:04:46;;;;;;;4.20;1.77;;;10.80;99.90;;;;;;5054271;28;20156;-70
2021/10/01 05:07:13;;;;;;;3.53;1.60;;;10.80;99.90;;;;;;5053897;28;20170;-70
2021/10/01 05:09:39;;;;;;;5.47;1.83;;;10.80;99.90;;;;;;5036374;28;20743;-70
2021/10/01 05:12:05;;;;;;;5.57;1.30;;;10.80;99.90;;;;;;5034602;28;20438;-70
2021/10/01 05:14:30;;;;;;;2.07;1.07;;;10.80;99.90;;;;;;5034106;28;20197;-70
2021/10/01 05:16:56;;;;;;;2.90;1.80;;;10.80;99.90;;;;;;5033223;28;20157;-70
2021/10/01 05:19:23;;;;;;;3.90;1.73;;;10.80;99.90;;;;;;5038020;28;20179;-70
2021/10/01 05:21:48;;;;;;;2.60;1.47;;;10.80;99.90;;;;;;5039887;28;20211;-70
2021/10/01 05:24:14;;;;;;;2.53;1.47;;;10.80;99.90;;;;;;5054598;28;21284;-70
2021/10/01 05:26:42;;;;;;;3.03;1.33;;;10.80;99.90;;;;;;5052978;28;20213;-70
2021/10/01 05:29:07;;;;;;;3.30;1.73;;;10.80;99.90;;;;;;5043821;28;20444;-70
2021/10/01 05:31:33;;;;;;;3.20;1.47;;;10.90;99.90;;;;;;5035982;28;20433;-70
2021/10/01 05:33:58;;;;;;;4.23;2.13;;;10.80;99.90;;;;;;5032822;28;20246;-70
2021/10/01 05:36:24;;;;;;;8.13;1.40;;;10.80;99.90;;;;;;5039933;28;20179;-70
2021/10/01 05:38:50;;;;;;;5.10;1.73;;;10.90;99.90;;;;;;5043775;28;20183;-70
2021/10/01 05:41:15;;;;;;;5.13;1.63;;;10.80;99.90;;;;;;5050395;28;20698;-70
2021/10/01 05:43:41;;;;;;;1.90;1.40;;;10.80;99.90;;;;;;5038985;28;20186;-70
2021/10/01 05:46:08;;;;;;;3.43;1.40;;;10.90;99.90;;;;;;5036930;28;20293;-70
2021/10/01 05:48:36;;;;;;;3.90;1.87;;;10.80;99.90;;;;;;5039655;28;20244;-70
2021/10/01 05:51:07;;;;;;;6.00;1.77;;;10.80;99.90;;;;;;5050845;28;20904;-70
2021/10/01 05:56:18;;;;;;;3.60;1.67;;;10.90;99.90;;;;;;5035188;28;20424;-70
2021/10/01 05:58:43;;;;;;;3.37;2.53;;;10.90;99.90;;;;;;5049311;28;20447;-70
2021/10/01 06:01:10;;;;;;;6.07;2.20;;;10.90;99.90;;;;;;5037594;28;20247;-70
2021/10/01 06:03:36;;;;;;;2.97;1.53;;;10.90;99.90;;;;;;5040779;28;20523;-70
2021/10/01 06:06:01;;;;;;;4.00;1.70;;;10.90;99.90;;;;;;5039384;28;20933;-70
2021/10/01 06:08:27;;;;;;;2.70;1.60;;;11.00;99.90;;;;;;5041787;28;20171;-70
2021/10/01 06:10:53;;;;;;;6.20;2.00;;;11.00;99.90;;;;;;5040754;28;20184;-70
2021/10/01 06:13:18;;;;;;;2.27;1.60;;;11.00;99.90;;;;;;5033654;28;20192;-70
2021/10/01 06:15:45;;;;;;;3.33;1.50;;;11.10;99.90;;;;;;5040602;28;20432;-70
2021/10/01 06:18:10;;;;;;;7.60;1.90;;;11.10;99.90;;;;;;5041929;28;20165;-71
2021/10/01 06:20:38;;;;;;;3.57;1.53;;;11.20;99.90;;;;;;5046000;28;20478;-70
2021/10/01 06:23:03;;;;;;;3.50;1.50;;;11.20;99.90;;;;;;5052866;28;20585;-70
2021/10/01 06:25:29;;;;;;;3.23;1.33;;;11.20;99.90;;;;;;5042343;28;20415;-70
2021/10/01 06:27:55;;;;;;;5.03;1.40;;;11.20;99.90;;;;;;5033744;28;20412;-70
2021/10/01 06:30:20;;;;;;;2.20;1.23;;;11.20;99.90;;;;;;5051077;28;20535;-70
2021/10/01 06:32:46;;;;;;;6.63;2.07;;;11.30;99.90;;;;;;5050620;28;20521;-70
2021/10/01 06:35:12;;;;;;;4.30;1.47;;;11.30;99.90;;;;;;5047220;28;20176;-70
2021/10/01 06:37:38;;;;;;;3.07;1.20;;;11.40;99.90;;;;;;5038983;28;20173;-70
2021/10/01 06:40:06;;;;;;;3.50;1.10;;;11.40;99.90;;;;;;5036475;28;20469;-70
2021/10/01 06:42:33;;;;;;;3.00;1.40;;;11.40;99.90;;;;;;5047740;28;20483;-70
2021/10/01 06:45:02;;;;;;;2.77;1.43;;;11.50;99.90;;;;;;5044761;28;20409;-70
2021/10/01 07:21:16;;;;;;;2.17;1.13;;;12.50;99.90;;;;;;5032621;28;20776;-70
2021/10/01 08:18:15;;;;;;;3.27;1.40;;;13.20;99.90;;;;;;5113239;28;20410;-71
2021/10/01 08:18:23;;;;;;;3.13;1.23;;;13.40;99.90;;;;;;5114229;28;20452;-71
2021/10/01 08:21:04;;;;;;;3.13;1.20;;;13.80;99.90;;;;;;5069362;28;20527;-70
2021/10/01 08:23:29;;;;;;;1.73;1.00;;;13.90;99.90;;;;;;5038941;28;20412;-70
2021/10/01 08:25:55;;;;;;;2.80;1.03;;;14.00;99.90;;;;;;5040528;28;20428;-70
2021/10/01 08:28:21;;;;;;;2.13;1.10;;;14.00;99.90;;;;;;5034105;28;20177;-70
2021/10/01 08:30:46;;;;;;;1.20;1.00;;;14.10;99.90;;;;;;5042354;28;20178;-70
2021/10/01 08:33:12;;;;;;;3.17;0.90;;;14.20;99.90;;;;;;5034715;28;20592;-70
2021/10/01 08:35:37;;;;;;;2.77;1.03;;;14.30;99.90;;;;;;5030359;28;20257;-70
2021/10/01 08:38:03;;;;;;;4.03;1.23;;;14.30;99.90;;;;;;5035985;28;20191;-70
2021/10/01 08:40:29;;;;;;;3.23;1.20;;;14.30;99.90;;;;;;5038569;28;20255;-70
2021/10/01 08:42:55;;;;;;;4.73;1.50;;;14.40;99.90;;;;;;5043726;28;20179;-70
2021/10/01 08:45:23;;;;;;;3.90;1.87;;;14.40;99.90;;;;;;5059591;28;20215;-70
2021/10/01 08:47:49;;;;;;;1.93;1.00;;;14.50;99.90;;;;;;5036596;28;20421;-70
2021/10/01 08:50:19;;;;;;;1.40;1.30;;;14.60;99.90;;;;;;5040364;28;20432;-70
2021/10/01 08:52:44;;;;;;;1.93;1.33;;;14.60;99.90;;;;;;5048643;28;20504;-70
2021/10/01 08:55:11;;;;;;;1.80;1.20;;;14.70;99.90;;;;;;5034109;28;20524;-70
2021/10/01 08:57:38;;;;;;;3.27;1.17;;;14.80;99.90;;;;;;5054159;28;20178;-70
2021/10/01 09:00:07;;;;;;;3.60;1.57;;;14.90;99.90;;;;;;5043919;28;20475;-71
2021/10/01 09:02:33;;;;;;;1.93;1.10;;;15.00;99.90;;;;;;5062329;28;20431;-70
2021/10/01 09:04:58;;;;;;;2.90;0.90;;;15.00;99.90;;;;;;5057318;28;20421;-70
2021/10/01 09:07:25;;;;;;;3.10;1.93;;;15.00;99.90;;;;;;5035162;28;20226;-70
2021/10/01 09:09:53;;;;;;;7.83;1.43;;;15.10;99.90;;;;;;5041943;28;20176;-71
2021/10/01 09:12:20;;;;;;;3.07;1.73;;;15.10;99.90;;;;;;5043535;28;20448;-70
2021/10/01 09:17:25;;;;;;;1.80;1.10;;;15.10;99.90;;;;;;5082498;27;21146;-70
2021/10/01 09:19:52;;;;;;;2.70;1.00;;;15.10;99.90;;;;;;5083416;28;20504;-70
2021/10/01 09:22:36;;;;;;;1.80;0.97;;;15.20;99.90;;;;;;5078108;28;20559;-70
2021/10/01 09:25:24;;;;;;;4.63;2.17;;;15.20;99.90;;;;;;5084337;28;20420;-71
2021/10/01 09:28:00;;;;;;;2.60;1.10;;;15.20;99.90;;;;;;5080713;28;20424;-70
2021/10/01 09:30:26;;;;;;;2.10;0.83;;;15.40;99.90;;;;;;5079236;28;20924;-70
2021/10/01 09:35:44;;;;;;;3.00;1.57;;;15.50;99.90;;;;;;5041497;27;21121;-69
2021/10/01 09:38:13;;;;;;;2.00;1.63;;;15.60;99.90;;;;;;5040101;28;20419;-69
2021/10/01 09:40:40;;;;;;;3.53;1.20;;;15.60;99.90;;;;;;5028829;28;20424;-70
2021/10/01 09:43:05;;;;;;;3.00;1.13;;;15.70;99.90;;;;;;5024590;28;20400;-70
2021/10/01 09:45:31;;;;;;;4.60;1.00;;;15.70;99.90;;;;;;5034823;28;20427;-69
2021/10/01 09:48:04;;;;;;;5.00;2.13;;;15.70;99.90;;;;;;5041248;27;20181;-69
2021/10/01 09:50:31;;;;;;;3.20;1.20;;;15.70;99.90;;;;;;5050251;28;20434;-69
2021/10/01 09:53:02;;;;;;;2.13;0.93;;;15.80;99.90;;;;;;5054682;28;20903;-69
2021/10/01 09:55:33;;;;;;;1.30;1.07;;;15.80;99.90;;;;;;5041579;27;20501;-70
2021/10/01 10:00:46;;;;;;;6.80;1.40;;;15.90;99.90;;;;;;5079093;27;22506;-70
2021/10/01 10:03:15;;;;;;;5.13;1.30;;;15.90;99.90;;;;;;5071198;28;20422;-70
2021/10/01 10:08:39;;;;;;;7.03;1.27;;;16.00;99.90;;;;;;5079330;27;21124;-70
2021/10/01 10:11:07;;;;;;;2.33;1.73;;;16.10;99.90;;;;;;5067352;28;20832;-70
2021/10/01 10:16:17;;;;;;;3.43;1.40;;;16.10;99.90;;;;;;5067697;28;20972;-70
2021/10/01 10:18:43;;;;;;;4.53;1.70;;;16.10;99.90;;;;;;5042264;28;20442;-69
2021/10/01 10:21:09;;;;;;;4.33;1.13;;;16.20;99.90;;;;;;5044378;28;20411;-69
2021/10/01 10:23:35;;;;;;;4.93;1.00;;;16.30;99.90;;;;;;5051690;28;20492;-70
2021/10/01 10:26:02;;;;;;;5.70;3.77;;;16.30;99.90;;;;;;5046760;28;20176;-70
2021/10/01 10:28:28;;;;;;;3.80;2.53;;;16.30;99.90;;;;;;5031283;28;20176;-70
2021/10/01 10:30:55;;;;;;;6.70;1.33;;;16.30;99.90;;;;;;5043674;28;20423;-70
2021/10/01 10:33:42;;;;;;;4.20;1.10;;;16.30;99.90;;;;;;5037155;28;20428;-69
2021/10/01 10:36:36;;;;;;;10.63;1.87;;;16.30;99.90;;;;;;5047302;28;20463;-69
2021/10/01 10:44:43;;;;;;;2.10;1.20;;;16.30;99.90;;;;;;5067695;28;20523;-70
2021/10/01 10:47:10;;;;;;;3.73;1.60;;;16.30;99.90;;;;;;5066944;28;20421;-71
2021/10/01 10:49:36;;;;;;;2.87;1.20;;;16.30;99.90;;;;;;5059014;28;20689;-70
2021/10/01 11:00:03;;;;;;;3.20;1.20;;;16.40;99.90;;;;;;5066255;28;20535;-70
2021/10/01 11:02:33;;;;;;;3.43;1.30;;;16.50;99.90;;;;;;5061936;28;20398;-70
2021/10/01 11:05:21;;;;;;;5.70;1.60;;;16.60;99.90;;;;;;5063888;28;20407;-70
2021/10/01 11:07:52;;;;;;;6.73;1.17;;;16.60;99.90;;;;;;5048458;28;20445;-70
2021/10/01 11:10:36;;;;;;;3.10;1.20;;;16.60;99.90;;;;;;5063943;28;20402;-71
2021/10/01 11:16:15;;;;;;;3.40;1.40;;;16.70;99.90;;;;;;5110709;27;20497;-70
2021/10/01 11:29:35;;;;;;;4.40;1.87;;;17.10;99.90;;;;;;5070122;28;20547;-70
2021/10/01 11:37:21;;;;;;;1.93;1.40;;;17.20;99.90;;;;;;5110714;27;20509;-70
2021/10/01 11:39:47;;;;;;;1.97;1.57;;;17.20;99.90;;;;;;5099669;28;20401;-70
2021/10/01 11:42:36;;;;;;;1.33;1.00;;;17.20;99.90;;;;;;5090554;28;20908;-70
2021/10/01 11:45:20;;;;;;;4.17;1.00;;;17.10;99.90;;;;;;5075961;28;20623;-70
2021/10/01 11:53:17;;;;;;;3.13;1.27;;;17.10;99.90;;;;;;5110718;27;20567;-70
2021/10/01 11:55:54;;;;;;;3.17;1.53;;;17.00;99.60;;;;;;5108582;28;20420;-70
2021/10/01 11:58:21;;;;;;;4.63;1.60;;;17.00;99.90;;;;;;5090033;28;20503;-70
2021/10/01 12:00:47;;;;;;;4.60;1.53;;;17.00;99.80;;;;;;5090167;28;20448;-70
2021/10/01 12:03:15;;;;;;;2.40;1.10;;;16.90;99.90;;;;;;5090091;28;20393;-70
2021/10/01 12:05:45;;;;;;;2.37;1.27;;;16.90;99.40;;;;;;5090123;28;20654;-70
2021/10/01 12:08:12;;;;;;;6.47;2.97;;;16.90;99.70;;;;;;5090206;28;20935;-70
2021/10/01 12:10:41;;;;;;;4.20;2.97;;;16.90;99.90;;;;;;5090406;28;20794;-70
2021/10/01 12:16:04;;;;;;;2.57;1.40;;;16.90;99.90;;;;;;5070134;28;20957;-70
2021/10/01 12:21:20;;;;;;;3.03;2.17;;;16.90;99.90;;;;;;5070190;28;20500;-70
2021/10/01 12:23:55;;;;;;;5.43;1.50;;;16.90;99.90;;;;;;5070510;28;20533;-71
2021/10/01 12:34:41;;;;;;;3.47;1.70;;;16.90;99.90;;;;;;5090398;28;21159;-70
2021/10/01 12:37:12;;;;;;;3.10;1.37;;;16.80;99.90;;;;;;5076041;28;20398;-70
2021/10/01 12:39:40;;;;;;;3.80;1.10;;;16.90;99.90;;;;;;5090385;28;20392;-70
2021/10/01 12:42:09;;;;;;;2.23;1.37;;;16.90;99.90;;;;;;5090128;28;20393;-70
2021/10/01 12:44:38;;;;;;;4.73;1.17;;;17.00;99.90;;;;;;5090256;28;20385;-70
2021/10/01 12:52:53;;;;;;;4.60;1.20;;;17.20;99.90;;;;;;5070696;28;20516;-70
2021/10/01 12:55:19;;;;;;;8.57;1.40;;;17.20;99.90;;;;;;5070066;28;20392;-70
2021/10/01 12:57:47;;;;;;;3.50;1.53;;;17.30;99.90;;;;;;5057774;28;20407;-70
2021/10/01 13:00:19;;;;;;;5.70;1.30;;;17.30;99.70;;;;;;5049853;28;20204;-70
2021/10/01 13:03:02;;;;;;;3.60;1.17;;;17.40;99.40;;;;;;5049860;28;20490;-70
2021/10/01 13:05:30;;;;;;;4.93;1.10;;;17.50;99.70;;;;;;5066320;28;20409;-70
2021/10/01 13:13:16;;;;;;;6.37;5.37;;;17.50;99.80;;;;;;5069883;28;20505;-70
2021/10/01 13:23:37;;;;;;;2.77;1.00;;;17.70;99.30;;;;;;5084201;27;20520;-70
2021/10/01 13:29:03;;;;;;;3.30;1.60;;;17.90;98.90;;;;;;5054870;28;20561;-71
2021/10/01 13:31:37;;;;;;;2.53;2.17;;;18.00;98.40;;;;;;5030118;28;20396;-71
2021/10/01 13:34:03;;;;;;;2.50;1.40;;;18.00;97.80;;;;;;5030144;28;20397;-71
2021/10/01 13:36:28;;;;;;;1.50;1.17;;;18.10;99.00;;;;;;5030579;28;20403;-71
2021/10/01 13:38:54;;;;;;;2.33;1.23;;;18.10;97.10;;;;;;5041741;28;20266;-71
2021/10/01 13:41:21;;;;;;;2.70;0.87;;;18.10;96.70;;;;;;5049408;28;20283;-71
2021/10/01 13:43:47;;;;;;;2.40;1.23;;;18.10;96.80;;;;;;5049816;28;20628;-71
2021/10/01 13:46:15;;;;;;;2.43;1.00;;;18.20;96.50;;;;;;5048863;28;20395;-71
2021/10/01 13:48:40;;;;;;;3.60;1.40;;;18.20;96.80;;;;;;5041467;28;20480;-71
2021/10/01 13:51:07;;;;;;;1.33;0.80;;;18.20;97.20;;;;;;5041297;28;20446;-71
2021/10/01 13:53:33;;;;;;;1.93;1.33;;;18.20;97.40;;;;;;5047135;28;20426;-68
2021/10/01 13:55:59;;;;;;;2.30;1.00;;;18.30;97.70;;;;;;5045902;28;20431;-69
2021/10/01 13:58:25;;;;;;;4.43;1.87;;;18.30;97.80;;;;;;5027926;28;20408;-69
2021/10/01 14:00:53;;;;;;;1.90;1.30;;;18.20;98.10;;;;;;5028672;28;20168;-69
2021/10/01 14:03:21;;;;;;;3.23;2.13;;;18.30;98.20;;;;;;5029135;28;20417;-69
2021/10/01 14:05:47;;;;;;;2.30;1.80;;;18.30;99.20;;;;;;5030213;28;20403;-69
2021/10/01 14:08:13;;;;;;;2.47;2.27;;;18.30;97.80;;;;;;5028685;28;20451;-69
2021/10/01 14:10:39;;;;;;;5.47;2.40;;;18.30;97.00;;;;;;5027988;28;20458;-69
2021/10/01 14:13:07;;;;;;;2.40;1.00;;;18.30;96.30;;;;;;5043316;28;20913;-69
2021/10/01 14:15:34;;;;;;;2.80;1.50;;;18.30;95.10;;;;;;5048987;28;20688;-69
2021/10/01 14:18:00;;;;;;;3.90;1.50;;;18.20;95.30;;;;;;5049115;28;20498;-69
2021/10/01 14:20:28;;;;;;;1.60;1.40;;;18.20;93.70;;;;;;5049853;28;20829;-70
2021/10/01 14:22:55;;;;;;;5.90;2.23;;;18.20;94.20;;;;;;5048777;28;20623;-69
2021/10/01 14:25:21;;;;;;;1.63;1.10;;;18.30;94.70;;;;;;5048800;28;20498;-69
2021/10/01 14:27:47;;;;;;;1.30;1.10;;;18.30;93.80;;;;;;5048099;28;20938;-69
2021/10/01 14:30:15;;;;;;;1.23;0.87;;;18.30;92.90;;;;;;5048661;28;20429;-69
2021/10/01 14:32:42;;;;;;;4.23;1.20;;;18.30;91.90;;;;;;5048813;28;20160;-70
2021/10/01 14:35:10;;;;;;;1.50;1.00;;;18.20;92.00;;;;;;5049107;28;20868;-69
2021/10/01 14:37:37;;;;;;;2.30;1.40;;;18.20;92.20;;;;;;5048595;28;20434;-69
2021/10/01 14:40:05;;;;;;;1.10;1.00;;;18.20;93.40;;;;;;5036491;28;20407;-70
2021/10/01 14:42:31;;;;;;;2.17;1.40;;;18.30;92.40;;;;;;5035421;28;20476;-69
2021/10/01 14:44:56;;;;;;;5.83;2.17;;;18.30;92.20;;;;;;5035267;28;20549;-69
2021/10/01 14:47:22;;;;;;;7.63;1.77;;;18.30;92.20;;;;;;5035166;28;20204;-69
2021/10/01 14:49:47;;;;;;;4.87;2.47;;;18.30;93.00;;;;;;5035531;28;20160;-69
2021/10/01 14:52:13;;;;;;;2.67;1.87;;;18.30;94.50;;;;;;5035208;28;20171;-69
2021/10/01 14:54:40;;;;;;;3.00;1.43;;;18.30;94.70;;;;;;5035270;28;20157;-70
2021/10/01 14:57:06;;;;;;;2.07;1.50;;;18.30;93.20;;;;;;5034864;28;20196;-69
2021/10/01 14:59:32;;;;;;;2.40;1.47;;;18.30;93.80;;;;;;5034985;28;20435;-69
2021/10/01 15:01:58;;;;;;;1.90;1.37;;;18.30;93.50;;;;;;5035313;28;20469;-69
2021/10/01 15:04:23;;;;;;;2.23;0.90;;;18.30;93.50;;;;;;5035168;28;20275;-69
2021/10/01 15:06:49;;;;;;;3.27;1.00;;;18.20;94.10;;;;;;5035259;28;20716;-69
2021/10/01 15:09:14;;;;;;;2.20;1.50;;;18.20;94.20;;;;;;5035288;28;20200;-70
2021/10/01 15:11:40;;;;;;;4.40;2.50;;;18.20;94.50;;;;;;5035209;28;20522;-70
2021/10/01 15:14:06;;;;;;;1.93;1.00;;;18.10;95.10;;;;;;5034901;28;20514;-70
2021/10/01 15:16:31;;;;;;;3.17;1.17;;;18.10;94.50;;;;;;5034709;28;20167;-70
2021/10/01 15:18:57;;;;;;;3.83;1.73;;;18.00;94.90;;;;;;5035025;28;20160;-70
2021/10/01 15:21:23;;;;;;;4.00;1.17;;;18.00;95.00;;;;;;5034757;28;20188;-70
2021/10/01 15:23:48;;;;;;;1.83;1.23;;;17.90;95.10;;;;;;5034691;28;20158;-70
2021/10/01 15:26:15;;;;;;;5.37;1.80;;;17.90;94.90;;;;;;5033751;28;20172;-70
2021/10/01 15:28:41;;;;;;;3.83;1.37;;;17.80;94.90;;;;;;5034340;28;20204;-70
2021/10/01 15:31:07;;;;;;;2.50;1.20;;;17.80;93.80;;;;;;5034529;28;20496;-70
2021/10/01 15:33:33;;;;;;;2.97;1.27;;;17.70;93.80;;;;;;5034904;28;20156;-70
2021/10/01 15:35:59;;;;;;;1.93;1.00;;;17.70;93.60;;;;;;5034448;28;20396;-70
2021/10/01 15:38:26;;;;;;;2.83;1.20;;;17.60;93.10;;;;;;5034493;28;20254;-69
2021/10/01 15:40:52;;;;;;;2.47;1.40;;;17.60;93.20;;;;;;5034320;28;20157;-69
2021/10/01 15:43:18;;;;;;;1.80;1.13;;;17.60;93.20;;;;;;5034304;28;20457;-69
2021/10/01 15:45:46;;;;;;;1.70;1.00;;;17.60;92.70;;;;;;5034358;28;20402;-69
2021/10/01 15:48:12;;;;;;;1.87;1.10;;;17.50;92.80;;;;;;5034244;28;20448;-70
2021/10/01 15:50:38;;;;;;;2.97;1.60;;;17.50;92.80;;;;;;5033006;28;20396;-70
2021/10/01 15:53:05;;;;;;;3.03;2.03;;;17.40;93.00;;;;;;5034136;28;20195;-69
2021/10/01 15:55:32;;;;;;;2.60;1.13;;;17.40;92.90;;;;;;5033229;28;20508;-69
2021/10/01 15:57:58;;;;;;;2.00;1.40;;;17.40;93.20;;;;;;5034169;28;20486;-70